Time;durP1;ratioP1;P1;durP2;ratioP2;P2;SDS_P1;SDS_P2;PMS_P1;PMS_P2;Temp;Humidity;BMP_temperature;BMP_pressure;BME280_temperature;BME280_humidity;BME280_pressure;Samples;Min_cycle;Max_cycle;Signal;HPM_P1;HPM_P2
2022/09/09 00:00:29;;;;;;;3.00;1.45;;;13.40;99.90;;;;;;5034328;28;20022;-73
2022/09/09 00:03:07;;;;;;;4.03;1.27;;;13.40;99.90;;;;;;5050573;28;20484;-73
2022/09/09 00:05:58;;;;;;;1.52;0.80;;;13.50;99.90;;;;;;5045354;28;20037;-73
2022/09/09 00:08:38;;;;;;;3.33;1.05;;;13.50;99.90;;;;;;5041833;28;20064;-75
2022/09/09 00:11:09;;;;;;;2.03;1.05;;;13.60;99.90;;;;;;5041262;28;20036;-74
2022/09/09 00:13:50;;;;;;;0.95;0.68;;;13.60;99.90;;;;;;5041531;28;20036;-74
2022/09/09 00:16:23;;;;;;;1.90;0.90;;;13.60;99.90;;;;;;5042018;28;20021;-74
2022/09/09 00:19:20;;;;;;;3.45;0.95;;;13.60;99.90;;;;;;5042150;28;20390;-74
2022/09/09 00:22:02;;;;;;;1.55;1.08;;;13.60;99.90;;;;;;5043201;28;20056;-74
2022/09/09 00:24:42;;;;;;;2.40;1.08;;;13.60;99.90;;;;;;5040748;28;20041;-74
2022/09/09 00:27:17;;;;;;;1.77;0.88;;;13.60;99.90;;;;;;5041877;28;20025;-73
2022/09/09 00:29:56;;;;;;;3.92;1.00;;;13.60;99.90;;;;;;5041451;28;20045;-74
2022/09/09 00:32:28;;;;;;;1.88;1.05;;;13.70;99.90;;;;;;5041204;28;20482;-73
2022/09/09 00:35:23;;;;;;;1.45;1.10;;;13.80;99.90;;;;;;5042099;28;20498;-74
2022/09/09 00:37:56;;;;;;;2.50;1.13;;;13.80;99.90;;;;;;5033233;28;20504;-73
2022/09/09 00:40:34;;;;;;;3.85;1.10;;;13.90;99.90;;;;;;5042465;28;20108;-74
2022/09/09 00:43:30;;;;;;;1.98;0.90;;;13.90;99.90;;;;;;5042587;28;20017;-74
2022/09/09 00:46:28;;;;;;;1.70;0.90;;;13.90;99.90;;;;;;5041871;28;20609;-74
2022/09/09 00:49:05;;;;;;;1.90;0.90;;;13.90;99.90;;;;;;5041514;28;20061;-75
2022/09/09 00:51:46;;;;;;;3.20;1.15;;;13.90;99.90;;;;;;5040634;28;20025;-74
2022/09/09 00:54:52;;;;;;;3.33;0.98;;;13.80;99.90;;;;;;5041059;28;20382;-74
2022/09/09 00:57:32;;;;;;;1.58;0.90;;;13.90;99.90;;;;;;5042124;28;20090;-74
2022/09/09 01:00:21;;;;;;;2.35;0.80;;;13.90;99.90;;;;;;5042092;28;20047;-74
2022/09/09 01:03:17;;;;;;;3.15;0.93;;;13.90;99.90;;;;;;5043196;28;20024;-74
2022/09/09 01:06:11;;;;;;;2.95;0.90;;;13.90;99.90;;;;;;5041555;28;20542;-74
2022/09/09 01:09:03;;;;;;;0.90;0.73;;;14.10;99.90;;;;;;5041216;28;20041;-74
2022/09/09 01:12:00;;;;;;;1.13;0.60;;;14.20;99.90;;;;;;5051978;28;20096;-74
2022/09/09 01:14:36;;;;;;;2.28;0.80;;;14.20;99.90;;;;;;5056013;28;20389;-74
2022/09/09 01:17:16;;;;;;;1.48;0.88;;;14.30;99.90;;;;;;5056029;28;20021;-74
2022/09/09 01:19:46;;;;;;;2.88;1.08;;;14.30;99.90;;;;;;5056126;28;20469;-74
2022/09/09 01:22:31;;;;;;;4.50;0.70;;;14.40;99.90;;;;;;5056034;28;20017;-74
2022/09/09 01:25:15;;;;;;;1.48;0.60;;;14.40;99.90;;;;;;5056055;28;20079;-74
2022/09/09 01:27:43;;;;;;;1.70;0.60;;;14.40;99.90;;;;;;5056391;28;20036;-74
2022/09/09 01:30:16;;;;;;;1.27;0.50;;;14.40;99.90;;;;;;5055891;28;20073;-74
2022/09/09 01:32:55;;;;;;;1.95;0.57;;;14.40;99.90;;;;;;5055915;28;20373;-74
2022/09/09 01:35:42;;;;;;;1.45;0.57;;;14.50;99.90;;;;;;5052385;28;20045;-74
2022/09/09 01:38:10;;;;;;;0.80;0.52;;;14.50;99.90;;;;;;5055744;28;20020;-74
2022/09/09 01:40:38;;;;;;;1.38;0.60;;;14.60;99.90;;;;;;5055601;28;20477;-74
2022/09/09 01:43:07;;;;;;;1.13;0.30;;;14.60;99.90;;;;;;5037745;28;20025;-74
2022/09/09 01:45:35;;;;;;;1.50;0.47;;;14.70;99.90;;;;;;5034299;28;20022;-75
2022/09/09 01:48:02;;;;;;;0.43;0.40;;;14.70;99.90;;;;;;5043733;28;20080;-74
2022/09/09 01:50:30;;;;;;;1.70;0.60;;;14.80;99.90;;;;;;5045126;28;20166;-74
2022/09/09 01:53:02;;;;;;;2.60;0.50;;;14.80;99.90;;;;;;5045559;28;20021;-74
2022/09/09 01:56:05;;;;;;;0.88;0.52;;;14.80;99.90;;;;;;5044185;28;20030;-74
2022/09/09 01:58:48;;;;;;;1.15;0.65;;;14.90;99.90;;;;;;5028773;28;20029;-74
2022/09/09 02:01:40;;;;;;;0.90;0.50;;;15.10;99.90;;;;;;5045360;28;20113;-74
2022/09/09 02:04:28;;;;;;;1.42;0.80;;;15.10;99.90;;;;;;5044282;28;20009;-74
2022/09/09 02:06:58;;;;;;;0.90;0.50;;;15.10;99.90;;;;;;5023163;28;20034;-75
2022/09/09 02:09:29;;;;;;;1.65;0.40;;;15.10;99.90;;;;;;5043723;28;20082;-74
2022/09/09 02:12:11;;;;;;;0.35;0.30;;;15.10;99.90;;;;;;5042057;28;20553;-74
2022/09/09 02:14:56;;;;;;;0.40;0.40;;;15.20;99.90;;;;;;5040721;28;20406;-74
2022/09/09 02:17:29;;;;;;;0.40;0.32;;;15.30;99.90;;;;;;5038344;28;20026;-74
2022/09/09 02:20:04;;;;;;;1.02;0.60;;;15.30;99.90;;;;;;5046663;28;20037;-74
2022/09/09 02:22:34;;;;;;;1.90;0.50;;;15.40;99.90;;;;;;5031886;28;20486;-74
2022/09/09 02:25:02;;;;;;;0.60;0.50;;;15.40;99.90;;;;;;5039082;28;20021;-75
2022/09/09 02:27:30;;;;;;;1.05;0.50;;;15.40;99.90;;;;;;5042125;28;20071;-75
2022/09/09 02:30:02;;;;;;;2.08;0.32;;;15.60;99.90;;;;;;5040598;28;20032;-74
2022/09/09 02:32:34;;;;;;;0.75;0.30;;;15.70;99.90;;;;;;5042672;28;20029;-74
2022/09/09 02:35:09;;;;;;;2.72;0.47;;;15.80;99.90;;;;;;5042112;28;20517;-74
2022/09/09 02:37:39;;;;;;;0.40;0.30;;;15.90;99.90;;;;;;5043485;28;20463;-75
2022/09/09 02:40:10;;;;;;;0.77;0.40;;;16.00;99.90;;;;;;5042422;28;20029;-75
2022/09/09 02:42:41;;;;;;;1.77;0.60;;;16.10;99.90;;;;;;5048722;28;20032;-74
2022/09/09 02:45:11;;;;;;;1.00;0.43;;;16.20;99.90;;;;;;5053569;28;20091;-75
2022/09/09 02:47:54;;;;;;;1.02;0.50;;;16.30;99.90;;;;;;5042813;28;20025;-75
2022/09/09 02:50:29;;;;;;;2.53;0.60;;;16.30;99.90;;;;;;5044457;28;20032;-75
2022/09/09 02:53:20;;;;;;;1.13;0.40;;;16.50;99.90;;;;;;5044356;28;20013;-74
2022/09/09 02:56:21;;;;;;;1.75;0.50;;;16.40;99.90;;;;;;5042949;28;20075;-75
2022/09/09 02:58:51;;;;;;;2.38;0.40;;;16.50;99.90;;;;;;5017239;28;20596;-74
2022/09/09 03:01:19;;;;;;;0.60;0.40;;;16.40;99.90;;;;;;5044260;28;20112;-74
2022/09/09 03:03:46;;;;;;;0.43;0.28;;;16.50;99.90;;;;;;5044379;28;20043;-74
2022/09/09 03:06:14;;;;;;;0.40;0.30;;;16.50;99.90;;;;;;5050876;28;20060;-75
2022/09/09 03:08:41;;;;;;;0.70;0.43;;;16.60;99.90;;;;;;5040067;28;20034;-75
2022/09/09 03:11:14;;;;;;;1.88;0.40;;;16.60;99.90;;;;;;5046918;28;20059;-74
2022/09/09 03:13:41;;;;;;;1.67;0.30;;;16.60;99.90;;;;;;5031912;28;20111;-75
2022/09/09 03:16:08;;;;;;;0.70;0.47;;;16.60;99.90;;;;;;5050714;28;20025;-75
2022/09/09 03:18:36;;;;;;;0.47;0.30;;;16.60;99.90;;;;;;5044378;28;20021;-75
2022/09/09 03:21:03;;;;;;;0.73;0.30;;;16.70;99.90;;;;;;5042054;28;20017;-74
2022/09/09 03:23:30;;;;;;;0.32;0.20;;;16.70;99.90;;;;;;5042762;28;20047;-75
2022/09/09 03:25:58;;;;;;;0.50;0.40;;;16.80;99.90;;;;;;5043628;28;20029;-75
2022/09/09 03:28:30;;;;;;;0.82;0.30;;;16.80;99.90;;;;;;5041071;28;20033;-74
2022/09/09 03:31:06;;;;;;;0.88;0.45;;;16.80;99.90;;;;;;5042220;28;20021;-75
2022/09/09 03:33:36;;;;;;;0.60;0.30;;;16.90;99.90;;;;;;5041802;28;20043;-74
2022/09/09 03:36:05;;;;;;;1.35;0.60;;;17.00;99.90;;;;;;5041680;28;20382;-75
2022/09/09 03:38:33;;;;;;;0.50;0.32;;;17.10;99.90;;;;;;5042693;28;20059;-74
2022/09/09 03:41:01;;;;;;;0.63;0.50;;;17.20;99.90;;;;;;5043616;28;20032;-75
2022/09/09 03:43:29;;;;;;;0.70;0.50;;;17.30;99.90;;;;;;5030837;28;20024;-74
2022/09/09 03:45:57;;;;;;;0.68;0.43;;;17.40;99.90;;;;;;5043271;28;20474;-75
2022/09/09 03:48:25;;;;;;;0.40;0.30;;;17.50;99.90;;;;;;5039446;28;20029;-75
2022/09/09 03:50:55;;;;;;;0.50;0.30;;;17.50;99.90;;;;;;5041225;28;20017;-75
2022/09/09 03:53:24;;;;;;;0.30;0.30;;;17.50;99.90;;;;;;5041426;28;20056;-74
2022/09/09 03:55:59;;;;;;;0.55;0.30;;;17.50;99.90;;;;;;5043528;28;20397;-75
2022/09/09 03:58:27;;;;;;;0.50;0.35;;;17.50;99.90;;;;;;5044188;28;20013;-75
2022/09/09 04:01:06;;;;;;;0.35;0.28;;;17.50;99.90;;;;;;5043590;28;20079;-75
2022/09/09 04:03:33;;;;;;;0.28;0.20;;;17.40;99.90;;;;;;5038310;28;20060;-75
2022/09/09 04:06:03;;;;;;;0.65;0.38;;;17.40;99.90;;;;;;5037467;28;20022;-74
2022/09/09 04:08:35;;;;;;;0.88;0.47;;;17.50;99.90;;;;;;5040105;28;20043;-74
2022/09/09 04:11:05;;;;;;;0.35;0.30;;;17.60;99.90;;;;;;5037653;28;20032;-75
2022/09/09 04:13:35;;;;;;;0.32;0.32;;;17.70;99.90;;;;;;5045394;28;20026;-74
2022/09/09 04:16:03;;;;;;;0.30;0.30;;;17.90;99.90;;;;;;5022570;28;20025;-74
2022/09/09 04:18:31;;;;;;;0.70;0.40;;;17.90;99.90;;;;;;5031214;28;20053;-74
2022/09/09 04:20:59;;;;;;;0.30;0.30;;;18.00;99.90;;;;;;5031228;28;20027;-75
2022/09/09 04:23:30;;;;;;;0.90;0.57;;;18.00;99.90;;;;;;5037348;28;20027;-75
2022/09/09 04:25:59;;;;;;;0.45;0.38;;;18.10;99.90;;;;;;5046438;28;20036;-74
2022/09/09 04:28:29;;;;;;;0.20;0.20;;;18.10;99.90;;;;;;5039263;28;20037;-75
2022/09/09 04:30:57;;;;;;;0.43;0.30;;;18.20;99.90;;;;;;5047612;28;20021;-75
2022/09/09 04:33:28;;;;;;;0.50;0.30;;;18.30;99.90;;;;;;5035256;28;20025;-74
2022/09/09 04:35:55;;;;;;;0.30;0.30;;;18.40;99.90;;;;;;5041845;28;20356;-75
2022/09/09 04:38:23;;;;;;;1.05;0.47;;;18.40;99.90;;;;;;5023125;28;20122;-74
2022/09/09 04:40:52;;;;;;;0.50;0.40;;;18.40;99.90;;;;;;5039271;28;20025;-74
2022/09/09 04:43:20;;;;;;;0.77;0.28;;;18.40;99.90;;;;;;5046181;28;20033;-75
2022/09/09 04:45:49;;;;;;;0.20;0.20;;;18.50;99.90;;;;;;5050653;28;20040;-74
2022/09/09 04:48:17;;;;;;;1.85;0.30;;;18.50;99.90;;;;;;5055940;28;20033;-75
2022/09/09 04:50:44;;;;;;;0.57;0.25;;;18.50;99.90;;;;;;5056351;28;20021;-75
2022/09/09 04:53:11;;;;;;;1.30;0.40;;;18.50;99.90;;;;;;5053801;28;20031;-75
2022/09/09 04:55:39;;;;;;;0.45;0.40;;;18.60;99.90;;;;;;5054741;28;20068;-74
2022/09/09 04:58:07;;;;;;;1.55;0.30;;;18.60;99.90;;;;;;5037308;28;20040;-74
2022/09/09 05:00:38;;;;;;;1.27;0.30;;;18.50;99.90;;;;;;5055099;28;20031;-74
2022/09/09 05:03:08;;;;;;;0.15;0.13;;;18.40;99.90;;;;;;5053507;28;20029;-74
2022/09/09 05:05:36;;;;;;;0.25;0.20;;;18.40;99.90;;;;;;5052638;28;20028;-75
2022/09/09 05:08:08;;;;;;;0.95;0.30;;;18.40;99.90;;;;;;5052251;28;20098;-74
2022/09/09 05:10:38;;;;;;;2.92;0.20;;;18.50;99.90;;;;;;5052285;28;20523;-75
2022/09/09 05:13:06;;;;;;;0.90;0.17;;;18.40;99.90;;;;;;5052553;28;20021;-75
2022/09/09 05:15:35;;;;;;;0.22;0.17;;;18.40;99.90;;;;;;5052059;28;20485;-74
2022/09/09 05:18:02;;;;;;;0.47;0.20;;;18.40;99.90;;;;;;5054085;28;20064;-75
2022/09/09 05:20:30;;;;;;;0.35;0.20;;;18.40;99.90;;;;;;5054856;28;20025;-74
2022/09/09 05:22:58;;;;;;;3.60;0.60;;;18.30;99.90;;;;;;5055773;28;20044;-75
2022/09/09 05:25:25;;;;;;;0.30;0.22;;;18.20;99.90;;;;;;5055955;28;20045;-74
2022/09/09 05:27:53;;;;;;;0.22;0.20;;;18.20;99.90;;;;;;5055719;28;20394;-74
2022/09/09 05:30:23;;;;;;;2.30;0.30;;;18.10;99.90;;;;;;5055995;28;20021;-74
2022/09/09 05:32:50;;;;;;;0.57;0.30;;;18.10;99.90;;;;;;5050330;28;20028;-75
2022/09/09 05:35:18;;;;;;;0.57;0.32;;;18.00;99.90;;;;;;5045971;28;20172;-75
2022/09/09 05:37:46;;;;;;;0.50;0.40;;;17.90;99.90;;;;;;5040745;28;20524;-74
2022/09/09 05:40:13;;;;;;;2.05;0.30;;;17.90;99.90;;;;;;5044321;28;20025;-75
2022/09/09 05:42:41;;;;;;;0.10;0.10;;;17.90;99.90;;;;;;5044457;28;20021;-75
2022/09/09 05:45:09;;;;;;;0.40;0.40;;;17.90;99.90;;;;;;5046160;28;20021;-74
2022/09/09 05:47:37;;;;;;;1.17;0.22;;;18.00;99.90;;;;;;5045062;28;20021;-75
2022/09/09 05:50:05;;;;;;;0.20;0.20;;;18.00;99.90;;;;;;5043462;28;20379;-74
2022/09/09 05:52:32;;;;;;;0.28;0.20;;;18.00;99.90;;;;;;5054828;28;20018;-75
2022/09/09 05:55:00;;;;;;;0.60;0.30;;;18.00;99.90;;;;;;5055337;28;20025;-74
2022/09/09 05:57:27;;;;;;;0.22;0.20;;;18.00;99.90;;;;;;5055214;28;20147;-74
2022/09/09 05:59:54;;;;;;;0.10;0.10;;;17.90;99.90;;;;;;5051764;28;20033;-75
2022/09/09 06:02:22;;;;;;;0.30;0.20;;;17.90;99.90;;;;;;5043117;28;20514;-76
2022/09/09 06:04:49;;;;;;;0.22;0.22;;;17.90;99.90;;;;;;5046990;28;20040;-75
2022/09/09 06:07:17;;;;;;;0.10;0.10;;;17.80;99.90;;;;;;5040963;28;20432;-75
2022/09/09 06:09:44;;;;;;;0.20;0.20;;;17.80;99.90;;;;;;5046265;28;20366;-74
2022/09/09 06:12:11;;;;;;;0.30;0.20;;;17.80;99.90;;;;;;5040904;28;20026;-75
2022/09/09 06:14:39;;;;;;;1.75;0.30;;;17.70;99.90;;;;;;5034039;28;20116;-74
2022/09/09 06:17:06;;;;;;;0.85;0.20;;;17.60;99.90;;;;;;5040480;28;20029;-75
2022/09/09 06:19:33;;;;;;;0.10;0.10;;;17.50;99.90;;;;;;5044611;28;20482;-75
2022/09/09 06:22:01;;;;;;;0.10;0.10;;;17.50;99.90;;;;;;5046013;28;20135;-76
2022/09/09 06:24:30;;;;;;;0.38;0.20;;;17.50;99.90;;;;;;5039516;28;20041;-74
2022/09/09 06:26:57;;;;;;;0.03;0.03;;;17.50;99.90;;;;;;5043130;28;20441;-75
2022/09/09 06:29:25;;;;;;;0.43;0.35;;;17.50;99.90;;;;;;5041465;28;20037;-74
2022/09/09 06:31:52;;;;;;;0.35;0.32;;;17.50;99.90;;;;;;5044331;28;20112;-76
2022/09/09 06:34:19;;;;;;;0.20;0.20;;;17.50;99.90;;;;;;5042665;28;20053;-75
2022/09/09 06:36:47;;;;;;;0.22;0.20;;;17.60;99.90;;;;;;5039138;28;20470;-74
2022/09/09 06:39:15;;;;;;;0.20;0.20;;;17.50;99.90;;;;;;5038139;28;20025;-74
2022/09/09 06:41:42;;;;;;;0.20;0.20;;;17.50;99.90;;;;;;5036481;28;20043;-75
2022/09/09 06:44:11;;;;;;;1.88;0.30;;;17.50;99.90;;;;;;5033727;28;20030;-75
2022/09/09 06:46:39;;;;;;;0.28;0.20;;;17.40;99.90;;;;;;5033508;28;20509;-75
2022/09/09 06:49:07;;;;;;;0.95;0.38;;;17.40;99.90;;;;;;5033827;28;20037;-75
2022/09/09 06:51:42;;;;;;;0.95;0.20;;;17.40;99.90;;;;;;5032928;28;20445;-74
2022/09/09 06:54:11;;;;;;;0.30;0.20;;;17.40;99.90;;;;;;5033858;28;20029;-74
2022/09/09 06:56:43;;;;;;;0.20;0.20;;;17.30;99.90;;;;;;5032858;28;20018;-74
2022/09/09 06:59:11;;;;;;;0.20;0.20;;;17.30;99.90;;;;;;5031524;28;20028;-75
2022/09/09 07:01:43;;;;;;;0.57;0.30;;;17.30;99.90;;;;;;5013058;28;20114;-75
2022/09/09 07:04:12;;;;;;;0.45;0.32;;;17.20;99.90;;;;;;5030391;28;20018;-75
2022/09/09 07:06:45;;;;;;;0.20;0.20;;;17.20;99.90;;;;;;5030750;28;20109;-75
2022/09/09 07:09:15;;;;;;;0.10;0.10;;;17.10;99.90;;;;;;5029530;28;20485;-75
2022/09/09 07:11:48;;;;;;;0.17;0.17;;;17.10;99.90;;;;;;5032018;28;20129;-75
2022/09/09 07:14:17;;;;;;;0.28;0.20;;;17.00;99.90;;;;;;5032563;28;20017;-75
2022/09/09 07:16:46;;;;;;;0.30;0.20;;;17.00;99.90;;;;;;5033099;28;20025;-75
2022/09/09 07:19:14;;;;;;;2.95;0.30;;;16.90;99.90;;;;;;5033788;28;20017;-75
2022/09/09 07:21:41;;;;;;;0.20;0.20;;;16.90;99.90;;;;;;5033925;28;20112;-75
2022/09/09 07:24:10;;;;;;;0.20;0.20;;;16.80;99.90;;;;;;5033764;28;20060;-75
2022/09/09 07:26:38;;;;;;;0.40;0.40;;;16.70;99.90;;;;;;5034236;28;20029;-74
2022/09/09 07:29:06;;;;;;;0.20;0.20;;;16.70;99.90;;;;;;5033623;28;20044;-74
2022/09/09 07:31:37;;;;;;;0.10;0.10;;;16.60;99.90;;;;;;5033843;28;20017;-75
2022/09/09 07:34:05;;;;;;;0.50;0.20;;;16.60;99.90;;;;;;5033455;28;20041;-74
2022/09/09 07:36:36;;;;;;;2.90;0.30;;;16.50;99.90;;;;;;5033486;28;20056;-75
2022/09/09 07:39:17;;;;;;;0.63;0.38;;;16.50;99.90;;;;;;5033837;28;20025;-75
2022/09/09 07:41:47;;;;;;;0.30;0.28;;;16.40;99.90;;;;;;5033742;28;20018;-74
2022/09/09 07:44:21;;;;;;;0.30;0.20;;;16.30;99.90;;;;;;5033502;28;20386;-75
2022/09/09 07:46:49;;;;;;;1.02;0.40;;;16.30;99.90;;;;;;5034128;28;20029;-75
2022/09/09 07:49:17;;;;;;;2.33;0.43;;;16.10;99.90;;;;;;5033315;28;20073;-75
2022/09/09 07:51:49;;;;;;;3.40;0.55;;;16.10;99.90;;;;;;5033449;28;20021;-75
2022/09/09 07:54:23;;;;;;;0.68;0.45;;;16.00;99.90;;;;;;5033387;28;20025;-74
2022/09/09 07:56:51;;;;;;;4.13;0.80;;;15.90;99.90;;;;;;5033612;28;20029;-75
2022/09/09 07:59:19;;;;;;;0.95;0.50;;;15.90;99.90;;;;;;5033341;28;20017;-75
2022/09/09 08:01:53;;;;;;;0.93;0.47;;;15.80;99.90;;;;;;5033344;28;20026;-75
2022/09/09 08:04:22;;;;;;;0.50;0.47;;;15.70;99.90;;;;;;5033287;28;20017;-75
2022/09/09 08:06:53;;;;;;;1.30;0.50;;;15.60;99.90;;;;;;5033368;28;20028;-75
2022/09/09 08:09:24;;;;;;;0.40;0.40;;;15.60;99.90;;;;;;5033891;28;20095;-74
2022/09/09 08:11:53;;;;;;;1.20;0.40;;;15.50;99.90;;;;;;5033230;28;20026;-75
2022/09/09 08:14:21;;;;;;;2.63;0.60;;;15.50;99.90;;;;;;5033257;28;20531;-75
2022/09/09 08:16:50;;;;;;;1.10;0.63;;;15.40;99.90;;;;;;5033135;28;20053;-76
2022/09/09 08:19:18;;;;;;;1.50;0.60;;;15.40;99.90;;;;;;5034252;28;20029;-74
2022/09/09 08:21:46;;;;;;;0.75;0.50;;;15.40;99.90;;;;;;5037368;28;20100;-75
2022/09/09 08:24:15;;;;;;;0.65;0.52;;;15.30;99.90;;;;;;5037291;28;20029;-76
2022/09/09 08:26:45;;;;;;;4.07;0.45;;;15.30;99.90;;;;;;5037082;28;20029;-75
2022/09/09 08:29:14;;;;;;;0.65;0.40;;;15.30;99.90;;;;;;5036979;28;20505;-75
2022/09/09 08:31:54;;;;;;;1.70;0.73;;;15.20;99.90;;;;;;5035696;28;20056;-75
2022/09/09 08:34:27;;;;;;;1.38;0.60;;;15.10;99.90;;;;;;5036845;28;20060;-75
2022/09/09 08:36:55;;;;;;;2.53;0.60;;;15.10;99.90;;;;;;5036775;28;20017;-75
2022/09/09 08:39:24;;;;;;;1.10;0.85;;;15.00;99.90;;;;;;5036883;28;20025;-74
2022/09/09 08:42:01;;;;;;;0.70;0.50;;;15.00;99.90;;;;;;5037010;28;20032;-76
2022/09/09 08:45:10;;;;;;;0.88;0.73;;;15.00;99.90;;;;;;5037137;28;20026;-76
2022/09/09 08:47:55;;;;;;;1.08;0.50;;;14.90;99.90;;;;;;5037257;28;20394;-74
2022/09/09 08:50:38;;;;;;;2.67;0.77;;;14.90;99.90;;;;;;5037035;28;20089;-75
2022/09/09 08:53:24;;;;;;;0.73;0.60;;;14.80;99.90;;;;;;5037054;28;20112;-76
2022/09/09 08:56:08;;;;;;;0.95;0.40;;;14.80;99.90;;;;;;5049628;28;20044;-76
2022/09/09 08:58:41;;;;;;;1.33;0.50;;;14.70;99.90;;;;;;5054814;28;20032;-76
2022/09/09 09:01:31;;;;;;;0.50;0.50;;;14.60;99.90;;;;;;5023055;28;20022;-76
2022/09/09 09:04:17;;;;;;;0.93;0.60;;;14.60;99.90;;;;;;5052906;28;20029;-77
2022/09/09 09:06:54;;;;;;;1.15;0.30;;;14.60;99.90;;;;;;5050905;28;20377;-75
2022/09/09 09:09:43;;;;;;;0.50;0.40;;;14.50;99.90;;;;;;5053211;28;20119;-76
2022/09/09 09:12:23;;;;;;;1.10;0.40;;;14.40;99.90;;;;;;5053698;28;20028;-77
2022/09/09 09:14:51;;;;;;;1.80;0.50;;;14.50;99.90;;;;;;5051342;28;20481;-75
2022/09/09 09:17:25;;;;;;;1.20;0.35;;;14.40;99.90;;;;;;5033460;28;20431;-77
2022/09/09 09:19:52;;;;;;;0.38;0.38;;;14.40;99.90;;;;;;5036029;28;20059;-76
2022/09/09 09:22:51;;;;;;;0.20;0.20;;;14.40;99.90;;;;;;5050215;28;20063;-77
2022/09/09 09:25:28;;;;;;;0.80;0.20;;;14.30;99.90;;;;;;5032263;28;20493;-77
2022/09/09 09:28:17;;;;;;;0.30;0.30;;;14.30;99.90;;;;;;5055164;28;20025;-75
2022/09/09 09:30:54;;;;;;;0.50;0.40;;;14.20;99.90;;;;;;5041622;28;20028;-74
2022/09/09 09:33:32;;;;;;;0.98;0.40;;;14.20;99.90;;;;;;5053656;28;20389;-75
2022/09/09 09:36:00;;;;;;;1.40;0.60;;;14.20;99.90;;;;;;5036170;28;20033;-75
2022/09/09 09:38:29;;;;;;;5.15;0.57;;;14.20;99.90;;;;;;5039166;28;20017;-75
2022/09/09 09:41:00;;;;;;;0.77;0.50;;;14.20;99.90;;;;;;5045504;28;20055;-75
2022/09/09 09:43:30;;;;;;;1.75;0.60;;;14.10;99.90;;;;;;5032054;28;20508;-75
2022/09/09 09:45:59;;;;;;;0.40;0.28;;;14.10;99.90;;;;;;5048734;28;20037;-75
2022/09/09 09:48:28;;;;;;;2.67;0.50;;;14.10;99.90;;;;;;5037261;28;20113;-75
2022/09/09 09:51:03;;;;;;;1.45;0.50;;;14.10;99.90;;;;;;5042100;28;20021;-75
2022/09/09 09:53:36;;;;;;;0.50;0.47;;;14.10;99.90;;;;;;5047863;28;20024;-74
2022/09/09 09:56:08;;;;;;;1.42;0.50;;;14.10;99.90;;;;;;5049786;28;20243;-75
2022/09/09 09:58:51;;;;;;;0.30;0.30;;;14.10;99.90;;;;;;5045690;28;20030;-74
2022/09/09 10:01:24;;;;;;;1.42;0.57;;;14.10;99.90;;;;;;5024016;28;20017;-74
2022/09/09 10:03:55;;;;;;;0.85;0.50;;;14.10;99.90;;;;;;5047589;28;20111;-74
2022/09/09 10:06:38;;;;;;;0.88;0.50;;;14.10;99.90;;;;;;5035409;28;20029;-75
2022/09/09 10:09:23;;;;;;;0.50;0.40;;;14.00;99.90;;;;;;5053142;28;20032;-75
2022/09/09 10:12:34;;;;;;;0.60;0.50;;;14.00;99.90;;;;;;5050861;28;20410;-75
2022/09/09 10:15:36;;;;;;;0.82;0.70;;;14.00;99.90;;;;;;5045040;28;20032;-75
2022/09/09 10:18:51;;;;;;;0.77;0.50;;;14.00;99.90;;;;;;5050802;28;20032;-74
2022/09/09 10:21:43;;;;;;;1.48;0.70;;;14.00;99.90;;;;;;5031331;28;20384;-74
2022/09/09 10:24:17;;;;;;;0.63;0.50;;;14.00;99.90;;;;;;5049346;28;20021;-75
2022/09/09 10:27:02;;;;;;;0.38;0.38;;;13.90;99.90;;;;;;5049719;28;20495;-76
2022/09/09 10:29:48;;;;;;;0.60;0.52;;;14.00;99.90;;;;;;5033509;28;20040;-75
2022/09/09 10:32:47;;;;;;;1.00;0.70;;;13.90;99.90;;;;;;5036256;28;20044;-75
2022/09/09 10:35:45;;;;;;;0.90;0.40;;;13.90;99.90;;;;;;5049440;28;20553;-76
2022/09/09 10:38:19;;;;;;;0.52;0.43;;;13.90;99.90;;;;;;5046947;28;20025;-76
2022/09/09 10:41:20;;;;;;;0.45;0.40;;;13.90;99.90;;;;;;5048296;28;20478;-76
2022/09/09 10:44:11;;;;;;;0.50;0.50;;;13.90;99.90;;;;;;5047186;28;20442;-77
2022/09/09 10:47:04;;;;;;;1.75;0.40;;;13.90;99.90;;;;;;5047317;28;20020;-76
2022/09/09 10:50:02;;;;;;;1.02;0.50;;;13.90;99.90;;;;;;5031238;28;20151;-76
2022/09/09 10:52:56;;;;;;;0.40;0.40;;;13.90;99.90;;;;;;5048852;28;20075;-77
2022/09/09 10:55:43;;;;;;;1.13;0.55;;;13.90;99.90;;;;;;5047100;28;20022;-75
2022/09/09 10:58:25;;;;;;;1.60;0.32;;;13.90;99.90;;;;;;5029515;28;20433;-75
2022/09/09 11:01:00;;;;;;;0.43;0.30;;;13.90;99.90;;;;;;5044141;28;20108;-77
2022/09/09 11:03:40;;;;;;;0.47;0.30;;;13.90;99.90;;;;;;5082450;27;20416;-74
2022/09/09 11:06:19;;;;;;;0.40;0.40;;;14.00;99.90;;;;;;5083969;28;20032;-73
2022/09/09 11:08:49;;;;;;;0.40;0.40;;;14.00;99.90;;;;;;5085579;28;20405;-73
2022/09/09 11:11:38;;;;;;;0.20;0.20;;;14.00;99.90;;;;;;5085248;28;20024;-75
2022/09/09 11:14:31;;;;;;;1.02;0.50;;;14.00;99.90;;;;;;5086122;28;20013;-74
2022/09/09 11:17:24;;;;;;;1.20;0.52;;;14.00;99.90;;;;;;5085618;28;20039;-74
2022/09/09 11:19:52;;;;;;;0.65;0.40;;;14.10;99.90;;;;;;5087425;28;20030;-74
2022/09/09 11:22:34;;;;;;;0.50;0.40;;;14.10;99.90;;;;;;5085294;28;20477;-73
2022/09/09 11:25:29;;;;;;;0.70;0.40;;;14.10;99.90;;;;;;5082359;28;20147;-73
2022/09/09 11:28:33;;;;;;;0.32;0.30;;;14.20;99.90;;;;;;5078228;28;20501;-74
2022/09/09 11:31:28;;;;;;;5.72;0.63;;;14.20;99.90;;;;;;5075390;28;20048;-74
2022/09/09 11:34:35;;;;;;;0.73;0.50;;;14.20;99.90;;;;;;5083578;28;20158;-75
2022/09/09 11:37:44;;;;;;;0.50;0.30;;;14.20;99.90;;;;;;5067202;28;20044;-75
2022/09/09 11:40:17;;;;;;;0.20;0.20;;;14.20;99.90;;;;;;5070144;28;20063;-74
2022/09/09 11:42:45;;;;;;;0.55;0.55;;;14.20;99.90;;;;;;5070377;28;20048;-75
2022/09/09 11:45:27;;;;;;;0.60;0.30;;;14.20;99.90;;;;;;5070185;28;20021;-75
2022/09/09 11:47:59;;;;;;;2.97;0.40;;;14.20;99.90;;;;;;5072204;28;20082;-74
2022/09/09 11:50:26;;;;;;;0.40;0.38;;;14.10;99.90;;;;;;5057731;28;20051;-75
2022/09/09 11:53:07;;;;;;;0.38;0.25;;;14.10;99.90;;;;;;5077130;28;20024;-75
2022/09/09 11:55:36;;;;;;;0.50;0.50;;;14.10;99.90;;;;;;5064345;28;20021;-74
2022/09/09 11:58:04;;;;;;;0.28;0.28;;;14.00;99.90;;;;;;5070609;28;20029;-75
2022/09/09 12:00:44;;;;;;;1.55;0.40;;;14.00;99.90;;;;;;5073802;28;20384;-75
2022/09/09 12:03:35;;;;;;;0.35;0.32;;;14.00;99.90;;;;;;5063747;28;20054;-76
2022/09/09 12:06:41;;;;;;;0.47;0.30;;;14.00;99.90;;;;;;5068340;28;20020;-74
2022/09/09 12:09:36;;;;;;;0.47;0.47;;;14.00;99.90;;;;;;5068093;28;20541;-75
2022/09/09 12:12:13;;;;;;;0.60;0.40;;;14.00;99.90;;;;;;5066075;28;20020;-75
2022/09/09 12:14:54;;;;;;;0.55;0.30;;;14.00;99.90;;;;;;5055024;28;20017;-75
2022/09/09 12:17:24;;;;;;;0.93;0.40;;;14.00;99.90;;;;;;5054335;28;20021;-75
2022/09/09 12:20:22;;;;;;;1.00;0.35;;;14.00;99.90;;;;;;5055379;28;20078;-74
2022/09/09 12:23:08;;;;;;;1.00;0.30;;;14.00;99.90;;;;;;5043787;28;20049;-76
2022/09/09 12:25:54;;;;;;;0.40;0.35;;;14.00;99.90;;;;;;5056589;28;20584;-76
2022/09/09 12:28:21;;;;;;;0.32;0.32;;;14.00;99.90;;;;;;5055181;28;20021;-77
2022/09/09 12:31:13;;;;;;;2.65;0.57;;;14.00;99.90;;;;;;5056195;28;20021;-78
2022/09/09 12:33:43;;;;;;;0.63;0.40;;;14.00;99.90;;;;;;5059469;28;20017;-77
2022/09/09 12:36:17;;;;;;;0.43;0.38;;;14.00;99.90;;;;;;5055203;28;20013;-78
2022/09/09 12:38:45;;;;;;;0.22;0.22;;;14.00;99.90;;;;;;5059118;28;20090;-77
2022/09/09 12:41:38;;;;;;;0.20;0.20;;;14.00;99.90;;;;;;5070505;28;20377;-77
2022/09/09 12:44:10;;;;;;;0.20;0.20;;;13.90;99.90;;;;;;5062364;28;20055;-77
2022/09/09 12:46:45;;;;;;;0.90;0.45;;;13.90;99.90;;;;;;5059670;28;20021;-77
2022/09/09 12:49:36;;;;;;;0.20;0.20;;;14.00;99.90;;;;;;5070401;28;20100;-76
2022/09/09 12:52:17;;;;;;;0.43;0.30;;;14.00;99.90;;;;;;5055282;28;20540;-76
2022/09/09 12:54:50;;;;;;;0.30;0.30;;;14.00;99.90;;;;;;5069206;28;20415;-76
2022/09/09 12:57:18;;;;;;;0.30;0.22;;;14.00;99.90;;;;;;5057092;28;20020;-76
2022/09/09 12:59:45;;;;;;;0.38;0.38;;;14.00;99.90;;;;;;5065339;28;20025;-77
2022/09/09 13:02:26;;;;;;;1.88;0.30;;;14.00;99.90;;;;;;5064441;28;20045;-76
2022/09/09 13:04:54;;;;;;;0.30;0.30;;;14.00;99.90;;;;;;5057356;28;20488;-76
2022/09/09 13:07:22;;;;;;;0.30;0.20;;;13.90;99.90;;;;;;5041146;28;20082;-77
2022/09/09 13:09:50;;;;;;;1.40;0.30;;;13.90;99.90;;;;;;5063946;28;20025;-76
2022/09/09 13:12:23;;;;;;;1.00;0.32;;;13.90;99.90;;;;;;5054584;28;20461;-76
2022/09/09 13:14:57;;;;;;;0.30;0.30;;;13.80;99.90;;;;;;5052957;28;20025;-76
2022/09/09 13:17:31;;;;;;;0.22;0.22;;;13.80;99.90;;;;;;5055277;28;20083;-75
2022/09/09 13:19:58;;;;;;;3.75;0.60;;;13.70;99.90;;;;;;5055063;28;20102;-75
2022/09/09 13:22:34;;;;;;;1.27;0.55;;;13.60;99.90;;;;;;5054799;28;20039;-76
2022/09/09 13:25:10;;;;;;;0.50;0.20;;;13.60;99.90;;;;;;5054007;28;20024;-75
2022/09/09 13:27:40;;;;;;;0.60;0.32;;;13.60;99.90;;;;;;5055360;28;20013;-76
2022/09/09 13:30:29;;;;;;;0.28;0.20;;;13.50;99.90;;;;;;5055534;28;20063;-75